createdAt,value
2023-02-25T00:00:53.974Z,5.17
2023-02-25T00:03:26.102Z,4.63
2023-02-25T00:05:55.676Z,5.10
2023-02-25T00:08:25.134Z,5.30
2023-02-25T00:10:59.873Z,5.55
2023-02-25T00:13:29.450Z,5.03
2023-02-25T00:15:59.251Z,5.40
2023-02-25T00:18:31.614Z,5.90
2023-02-25T00:21:01.081Z,5.82
2023-02-25T00:23:30.555Z,5.25
2023-02-25T00:26:01.394Z,4.70
2023-02-25T00:28:30.898Z,4.85
2023-02-25T00:31:00.498Z,4.72
2023-02-25T00:33:32.698Z,4.82
2023-02-25T00:36:02.249Z,4.22
2023-02-25T00:38:31.711Z,4.35
2023-02-25T00:41:01.215Z,4.10
2023-02-25T00:43:30.831Z,3.95
2023-02-25T00:46:00.338Z,3.70
2023-02-25T00:48:32.440Z,4.15
2023-02-25T00:51:07.557Z,3.80
2023-02-25T00:53:37.884Z,3.88
2023-02-25T00:56:07.738Z,4.15
2023-02-25T00:58:38.128Z,3.72
2023-02-25T01:01:08.039Z,3.42
2023-02-25T01:03:40.057Z,3.40
2023-02-25T01:06:10.907Z,3.67
2023-02-25T01:08:40.678Z,3.20
2023-02-25T01:11:14.825Z,3.30
2023-02-25T01:13:44.436Z,3.35
2023-02-25T01:16:15.491Z,3.22
2023-02-25T01:21:20.297Z,3.22
2023-02-25T01:23:50.081Z,3.45
2023-02-25T01:26:19.743Z,3.47
2023-02-25T01:28:49.316Z,3.10
2023-02-25T01:31:19.668Z,3.10
2023-02-25T01:33:51.789Z,3.20
2023-02-25T01:36:21.575Z,3.40
2023-02-25T01:38:51.295Z,3.13
2023-02-25T01:41:20.775Z,2.97
2023-02-25T01:44:09.012Z,2.90
2023-02-25T01:46:38.585Z,3.00
2023-02-25T01:49:12.497Z,2.80
2023-02-25T01:51:42.008Z,3.00
2023-02-25T01:54:11.658Z,2.70
2023-02-25T01:56:41.761Z,2.95
2023-02-25T01:59:11.323Z,3.30
2023-02-25T02:01:41.327Z,3.10
2023-02-25T02:04:14.650Z,2.95
2023-02-25T02:06:45.057Z,2.90
2023-02-25T02:09:16.127Z,3.15
2023-02-25T02:11:45.577Z,3.25
2023-02-25T02:14:17.139Z,3.47
2023-02-25T02:17:06.043Z,3.20
2023-02-25T02:19:45.089Z,3.88
2023-02-25T02:22:15.864Z,4.00
2023-02-25T02:25:02.660Z,3.55
2023-02-25T02:27:33.450Z,3.20
2023-02-25T02:30:32.468Z,3.40
2023-02-25T02:33:05.636Z,3.38
2023-02-25T02:35:38.476Z,3.35
2023-02-25T02:38:12.329Z,3.33
2023-02-25T02:40:45.818Z,3.65
2023-02-25T02:43:23.327Z,3.38
2023-02-25T02:45:54.160Z,3.35
2023-02-25T02:48:28.012Z,3.45
2023-02-25T02:50:58.958Z,3.40
2023-02-25T02:53:29.809Z,3.55
2023-02-25T02:56:00.167Z,3.50
2023-02-25T02:58:31.495Z,4.00
2023-02-25T03:01:01.999Z,3.72
2023-02-25T03:03:39.218Z,3.40
2023-02-25T03:06:11.170Z,3.38
2023-02-25T03:08:44.856Z,3.60
2023-02-25T03:11:14.493Z,3.65
2023-02-25T03:13:44.024Z,3.72
2023-02-25T03:16:15.370Z,3.35
2023-02-25T03:18:51.735Z,3.58
2023-02-25T03:21:23.596Z,3.60
2023-02-25T03:23:53.060Z,3.10
2023-02-25T03:26:25.620Z,3.38
2023-02-25T03:28:55.087Z,3.65
2023-02-25T03:31:26.115Z,3.58
2023-02-25T03:36:30.784Z,3.40
2023-02-25T03:39:02.656Z,2.88
2023-02-25T03:41:35.502Z,3.00
2023-02-25T03:44:05.358Z,2.80
2023-02-25T03:46:34.826Z,3.30
2023-02-25T03:49:07.205Z,3.25
2023-02-25T03:51:38.344Z,3.03
2023-02-25T03:56:44.114Z,3.08
2023-02-25T03:59:13.644Z,3.25
2023-02-25T04:01:43.160Z,3.13
2023-02-25T04:04:15.442Z,2.80
2023-02-25T04:06:44.966Z,3.20
2023-02-25T04:09:14.452Z,3.10
2023-02-25T04:11:43.931Z,3.10
2023-02-25T04:14:13.557Z,3.35
2023-02-25T04:16:43.162Z,3.33
2023-02-25T04:19:15.204Z,2.90
2023-02-25T04:21:44.694Z,3.13
2023-02-25T04:24:14.248Z,2.95
2023-02-25T04:26:43.948Z,2.92
2023-02-25T04:29:13.406Z,3.40
2023-02-25T04:31:43.124Z,3.38
2023-02-25T04:34:15.422Z,3.20
2023-02-25T04:36:45.117Z,3.20
2023-02-25T04:39:14.932Z,2.97
2023-02-25T04:41:44.468Z,3.40
2023-02-25T04:44:14.174Z,3.10
2023-02-25T04:46:44.568Z,3.53
2023-02-25T04:49:16.643Z,3.03
2023-02-25T04:51:46.210Z,3.65
2023-02-25T04:54:15.891Z,3.13
2023-02-25T04:56:45.447Z,3.25
2023-02-25T04:59:15.428Z,3.20
2023-02-25T05:01:45.483Z,3.53
2023-02-25T05:04:17.837Z,3.50
2023-02-25T05:06:47.453Z,3.25
2023-02-25T05:09:17.441Z,3.40
2023-02-25T05:11:47.103Z,3.35
2023-02-25T05:14:16.601Z,3.58
2023-02-25T05:16:46.101Z,3.35
2023-02-25T05:19:22.819Z,3.85
2023-02-25T05:21:52.452Z,2.92
2023-02-25T05:24:23.776Z,3.42
2023-02-25T05:26:54.131Z,3.38
2023-02-25T05:29:23.663Z,3.47
2023-02-25T05:31:55.298Z,3.63
2023-02-25T05:34:27.666Z,3.10
2023-02-25T05:36:57.190Z,3.15
2023-02-25T05:39:26.676Z,3.58
2023-02-25T05:41:56.210Z,3.20
2023-02-25T05:44:25.675Z,3.05
2023-02-25T05:46:55.225Z,3.08
2023-02-25T05:49:27.653Z,3.75
2023-02-25T05:51:57.159Z,3.20
2023-02-25T05:54:26.659Z,3.15
2023-02-25T05:56:56.111Z,3.28
2023-02-25T05:59:25.591Z,3.85
2023-02-25T06:01:55.137Z,3.80
2023-02-25T06:04:27.289Z,3.40
2023-02-25T06:06:56.765Z,3.83
2023-02-25T06:09:27.417Z,3.83
2023-02-25T06:11:56.904Z,3.40
2023-02-25T06:14:26.342Z,3.40
2023-02-25T06:16:57.031Z,3.63
2023-02-25T06:19:29.169Z,3.45
2023-02-25T06:21:58.771Z,3.72
2023-02-25T06:24:28.266Z,3.92
2023-02-25T06:26:57.808Z,3.80
2023-02-25T06:29:27.293Z,3.40
2023-02-25T06:31:57.013Z,4.00
2023-02-25T06:34:32.648Z,4.00
2023-02-25T06:37:02.206Z,3.60
2023-02-25T06:39:31.951Z,3.72
2023-02-25T06:42:01.604Z,3.95
2023-02-25T06:44:31.322Z,3.78
2023-02-25T06:47:00.823Z,3.63
2023-02-25T06:49:32.997Z,4.13
2023-02-25T06:52:02.482Z,3.72
2023-02-25T06:54:32.163Z,4.00
2023-02-25T06:57:02.383Z,3.80
2023-02-25T06:59:32.141Z,4.20
2023-02-25T07:02:01.637Z,4.43
2023-02-25T07:04:33.985Z,3.95
2023-02-25T07:07:03.476Z,4.53
2023-02-25T07:09:32.972Z,4.40
2023-02-25T07:12:02.502Z,4.93
2023-02-25T07:14:32.007Z,5.30
2023-02-25T07:17:01.458Z,4.38
2023-02-25T07:19:33.687Z,4.72
2023-02-25T07:22:03.333Z,4.32
2023-02-25T07:24:33.050Z,3.95
2023-02-25T07:27:05.663Z,4.20
2023-02-25T07:29:35.163Z,3.95
2023-02-25T07:32:04.894Z,4.68
2023-02-25T07:34:37.348Z,4.68
2023-02-25T07:37:06.849Z,4.85
2023-02-25T07:39:36.376Z,5.03
2023-02-25T07:42:06.276Z,4.80
2023-02-25T07:44:36.134Z,4.30
2023-02-25T07:47:05.640Z,4.28
2023-02-25T07:49:38.225Z,4.13
2023-02-25T07:52:07.742Z,4.35
2023-02-25T07:54:37.528Z,4.30
2023-02-25T07:57:07.488Z,4.50
2023-02-25T07:59:37.122Z,4.30
2023-02-25T08:02:10.357Z,4.93
2023-02-25T08:04:42.547Z,4.38
2023-02-25T08:07:12.115Z,3.92
2023-02-25T08:09:42.034Z,4.50
2023-02-25T08:12:11.557Z,4.30
2023-02-25T08:14:41.138Z,4.03
2023-02-25T08:17:10.638Z,4.40
2023-02-25T08:19:43.368Z,4.15
2023-02-25T08:22:13.271Z,4.18
2023-02-25T08:24:43.008Z,4.70
2023-02-25T08:27:12.667Z,3.40
2023-02-25T08:29:42.200Z,3.60
2023-02-25T08:32:11.963Z,3.70
2023-02-25T08:34:44.156Z,4.22
2023-02-25T08:37:13.900Z,3.63
2023-02-25T08:39:43.419Z,3.50
2023-02-25T08:42:18.826Z,3.88
2023-02-25T08:44:48.484Z,3.35
2023-02-25T08:47:18.000Z,3.67
2023-02-25T08:49:50.336Z,3.80
2023-02-25T08:52:20.208Z,3.80
2023-02-25T08:54:51.026Z,4.15
2023-02-25T08:57:20.506Z,4.18
2023-02-25T08:59:50.306Z,4.13
2023-02-25T09:02:19.974Z,3.97
2023-02-25T09:04:52.173Z,3.78
2023-02-25T09:07:22.190Z,3.45
2023-02-25T09:09:52.279Z,3.83
2023-02-25T09:12:24.539Z,3.50
2023-02-25T09:14:54.286Z,3.85
2023-02-25T09:17:23.917Z,4.13
2023-02-25T09:19:57.435Z,4.15
2023-02-25T09:22:26.947Z,4.30
2023-02-25T09:24:56.771Z,4.60
2023-02-25T09:27:26.260Z,3.90
2023-02-25T09:29:58.707Z,3.80
2023-02-25T09:32:28.314Z,3.92
2023-02-25T09:35:07.339Z,4.20
2023-02-25T09:37:37.193Z,4.05
2023-02-25T09:40:09.597Z,3.55
2023-02-25T09:42:47.246Z,4.32
2023-02-25T09:45:18.257Z,3.92
2023-02-25T09:47:49.380Z,4.03
2023-02-25T09:52:56.826Z,3.60
2023-02-25T09:55:33.400Z,3.95
2023-02-25T09:58:05.892Z,3.47
2023-02-25T10:00:37.546Z,4.18
2023-02-25T10:03:09.652Z,3.95
2023-02-25T10:05:45.312Z,4.68
2023-02-25T10:08:19.230Z,3.90
2023-02-25T10:10:52.857Z,4.25
2023-02-25T10:13:27.037Z,3.38
2023-02-25T10:16:01.210Z,3.58
2023-02-25T10:18:49.344Z,3.75
2023-02-25T10:21:26.257Z,3.50
2023-02-25T10:24:04.872Z,3.03
2023-02-25T10:26:36.430Z,3.28
2023-02-25T10:29:08.224Z,3.10
2023-02-25T10:31:38.871Z,3.03
2023-02-25T10:34:21.035Z,2.50
2023-02-25T10:36:55.620Z,2.90
2023-02-25T10:39:25.223Z,3.00
2023-02-25T10:41:54.917Z,3.10
2023-02-25T10:44:24.346Z,2.92
2023-02-25T10:46:56.112Z,2.30
2023-02-25T10:49:26.456Z,2.42
2023-02-25T10:52:07.023Z,2.60
2023-02-25T10:54:37.711Z,2.38
2023-02-25T10:57:11.077Z,2.60
2023-02-25T10:59:42.768Z,2.83
2023-02-25T11:02:23.556Z,2.60
2023-02-25T11:04:53.325Z,3.13
2023-02-25T11:07:34.262Z,2.55
2023-02-25T11:10:14.488Z,2.60
2023-02-25T11:12:44.837Z,2.95
2023-02-25T11:15:50.045Z,2.88
2023-02-25T11:18:23.933Z,3.15
2023-02-25T11:20:54.792Z,3.70
2023-02-25T11:23:29.936Z,2.92
2023-02-25T11:25:59.428Z,3.08
2023-02-25T11:28:31.584Z,2.80
2023-02-25T11:31:13.034Z,2.40
2023-02-25T11:33:44.964Z,2.55
2023-02-25T11:36:14.548Z,2.67
2023-02-25T11:38:46.654Z,2.50
2023-02-25T11:41:21.290Z,2.92
2023-02-25T11:43:51.696Z,2.50
2023-02-25T11:46:23.195Z,2.57
2023-02-25T11:48:54.654Z,2.30
2023-02-25T11:51:29.007Z,2.60
2023-02-25T11:54:23.525Z,2.67
2023-02-25T11:56:53.940Z,2.80
2023-02-25T11:59:38.489Z,3.13
2023-02-25T12:02:36.283Z,3.05
2023-02-25T12:05:34.316Z,3.15
2023-02-25T12:08:14.414Z,3.20
2023-02-25T12:10:58.530Z,3.30
2023-02-25T12:13:47.255Z,2.95
2023-02-25T12:16:54.410Z,3.00
2023-02-25T12:19:57.230Z,3.20
2023-02-25T12:22:55.694Z,2.80
2023-02-25T12:25:29.892Z,2.35
2023-02-25T12:28:32.472Z,2.25
2023-02-25T12:31:18.638Z,2.50
2023-02-25T12:34:12.394Z,2.10
2023-02-25T12:36:58.268Z,2.22
2023-02-25T12:39:39.397Z,2.25
2023-02-25T12:44:51.791Z,2.40
2023-02-25T12:47:30.238Z,3.00
2023-02-25T12:50:24.645Z,2.95
2023-02-25T12:53:14.164Z,2.90
2023-02-25T12:56:16.547Z,3.15
2023-02-25T12:58:47.898Z,3.13
2023-02-25T13:01:44.889Z,3.00
2023-02-25T13:04:31.586Z,2.80
2023-02-25T13:07:19.876Z,2.85
2023-02-25T13:10:02.507Z,3.20
2023-02-25T13:12:43.698Z,3.45
2023-02-25T13:18:16.594Z,6.63
2023-02-25T13:21:16.375Z,4.32
2023-02-25T13:24:14.610Z,3.75
2023-02-25T13:26:52.536Z,2.63
2023-02-25T13:29:29.643Z,3.03
2023-02-25T13:32:08.413Z,2.58
2023-02-25T13:34:40.956Z,3.08
2023-02-25T13:37:21.032Z,2.90
2023-02-25T13:39:56.565Z,2.30
2023-02-25T13:42:33.826Z,2.20
2023-02-25T13:45:44.453Z,2.30
2023-02-25T13:48:46.681Z,2.15
2023-02-25T13:51:26.886Z,1.90
2023-02-25T13:54:07.600Z,2.00
2023-02-25T13:56:47.008Z,2.40
2023-02-25T13:59:24.028Z,2.30
2023-02-25T14:02:03.964Z,2.40
2023-02-25T14:05:07.466Z,3.00
2023-02-25T14:07:50.750Z,2.30
2023-02-25T14:10:34.544Z,2.60
2023-02-25T14:13:15.468Z,2.00
2023-02-25T14:15:50.386Z,1.80
2023-02-25T14:18:49.513Z,1.88
2023-02-25T14:21:44.393Z,1.90
2023-02-25T14:24:16.581Z,1.92
2023-02-25T14:26:53.657Z,1.80
2023-02-25T14:29:27.007Z,1.80
2023-02-25T14:32:07.674Z,1.92
2023-02-25T14:34:44.700Z,1.75
2023-02-25T14:37:23.743Z,1.90
2023-02-25T14:40:01.215Z,1.70
2023-02-25T14:42:50.858Z,1.85
2023-02-25T14:45:23.084Z,1.90
2023-02-25T14:47:57.202Z,1.50
2023-02-25T14:50:28.362Z,1.60
2023-02-25T14:56:06.399Z,1.83
2023-02-25T14:59:10.384Z,1.70
2023-02-25T15:02:27.377Z,1.70
2023-02-25T15:05:18.317Z,1.80
2023-02-25T15:07:58.512Z,1.55
2023-02-25T15:10:33.074Z,1.75
2023-02-25T15:13:31.993Z,1.73
2023-02-25T15:16:37.423Z,1.73
2023-02-25T15:19:35.803Z,1.50
2023-02-25T15:22:24.856Z,1.85
2023-02-25T15:24:55.430Z,1.67
2023-02-25T15:27:45.795Z,1.63
2023-02-25T15:30:19.294Z,1.70
2023-02-25T15:32:58.049Z,1.75
2023-02-25T15:35:46.699Z,1.77
2023-02-25T15:38:20.936Z,2.20
2023-02-25T15:40:52.465Z,1.98
2023-02-25T15:43:42.690Z,1.92
2023-02-25T15:46:42.525Z,1.90
2023-02-25T15:49:26.011Z,2.03
2023-02-25T15:51:56.860Z,2.05
2023-02-25T15:54:51.980Z,2.10
2023-02-25T15:57:48.665Z,2.00
2023-02-25T16:01:03.197Z,2.00
2023-02-25T16:03:42.195Z,2.00
2023-02-25T16:06:19.368Z,3.47
2023-02-25T16:08:52.736Z,2.05
2023-02-25T16:11:34.540Z,2.10
2023-02-25T16:14:06.971Z,2.20
2023-02-25T16:16:36.541Z,2.10
2023-02-25T16:19:07.004Z,2.13
2023-02-25T16:21:42.924Z,2.95
2023-02-25T16:24:12.892Z,2.20
2023-02-25T16:26:47.782Z,2.40
2023-02-25T16:29:37.703Z,2.15
2023-02-25T16:32:09.784Z,2.30
2023-02-25T16:34:43.363Z,2.50
2023-02-25T16:37:16.721Z,2.42
2023-02-25T16:39:46.328Z,2.28
2023-02-25T16:42:17.152Z,2.40
2023-02-25T16:44:48.211Z,2.50
2023-02-25T16:47:26.042Z,2.42
2023-02-25T16:49:55.979Z,2.00
2023-02-25T16:52:31.063Z,2.75
2023-02-25T16:55:02.005Z,2.05
2023-02-25T16:57:31.498Z,1.90
2023-02-25T17:00:18.163Z,2.10
2023-02-25T17:02:48.755Z,1.85
2023-02-25T17:05:29.614Z,1.80
2023-02-25T17:08:02.608Z,1.77
2023-02-25T17:10:33.658Z,1.95
2023-02-25T17:15:33.362Z,1.80
2023-02-25T17:18:06.217Z,1.60
2023-02-25T17:20:36.089Z,1.88
2023-02-25T17:23:11.163Z,1.90
2023-02-25T17:25:41.854Z,1.60
2023-02-25T17:28:11.655Z,1.90
2023-02-25T17:30:46.214Z,2.20
2023-02-25T17:33:22.774Z,2.40
2023-02-25T17:35:54.872Z,2.00
2023-02-25T17:38:29.104Z,1.95
2023-02-25T17:40:59.450Z,1.80
2023-02-25T17:43:35.234Z,2.47
2023-02-25T17:46:05.601Z,1.80
2023-02-25T17:48:38.101Z,2.10
2023-02-25T17:51:10.239Z,1.88
2023-02-25T17:53:44.865Z,2.40
2023-02-25T17:56:22.713Z,4.63
2023-02-25T17:58:53.028Z,4.38
2023-02-25T18:01:25.803Z,3.80
2023-02-25T18:03:55.706Z,2.00
2023-02-25T18:06:41.587Z,2.10
2023-02-25T18:09:39.856Z,1.80
2023-02-25T18:12:12.072Z,1.92
2023-02-25T18:14:43.307Z,1.90
2023-02-25T18:17:26.141Z,1.80
2023-02-25T18:19:56.566Z,2.05
2023-02-25T18:22:36.968Z,1.90
2023-02-25T18:25:11.639Z,2.50
2023-02-25T18:27:41.580Z,2.45
2023-02-25T18:30:18.831Z,2.40
2023-02-25T18:32:48.351Z,2.67
2023-02-25T18:35:18.308Z,2.20
2023-02-25T18:37:48.155Z,2.40
2023-02-25T18:40:22.745Z,2.05
2023-02-25T18:42:52.244Z,2.28
2023-02-25T18:45:23.524Z,2.20
2023-02-25T18:47:53.476Z,2.13
2023-02-25T18:50:23.208Z,2.20
2023-02-25T18:52:52.882Z,2.30
2023-02-25T18:55:25.970Z,1.90
2023-02-25T18:57:55.449Z,1.80
2023-02-25T19:00:27.521Z,1.98
2023-02-25T19:02:58.003Z,2.08
2023-02-25T19:05:28.186Z,2.13
2023-02-25T19:07:57.711Z,2.00
2023-02-25T19:10:30.981Z,1.90
2023-02-25T19:13:03.566Z,2.15
2023-02-25T19:15:39.267Z,3.38
2023-02-25T19:18:08.830Z,3.25
2023-02-25T19:20:38.861Z,2.80
2023-02-25T19:23:08.668Z,3.75
2023-02-25T19:25:41.148Z,3.58
2023-02-25T19:28:10.867Z,3.40
2023-02-25T19:30:46.330Z,4.40
2023-02-25T19:33:17.012Z,7.30
2023-02-25T19:35:49.733Z,13.73
2023-02-25T19:38:20.509Z,4.00
2023-02-25T19:40:52.624Z,3.60
2023-02-25T19:43:22.163Z,4.10
2023-02-25T19:45:54.095Z,4.03
2023-02-25T19:48:23.633Z,3.88
2023-02-25T19:50:53.198Z,6.35
2023-02-25T19:53:22.700Z,8.38
2023-02-25T19:55:57.918Z,6.18
2023-02-25T19:58:27.560Z,8.23
2023-02-25T20:00:57.229Z,5.07
2023-02-25T20:03:26.763Z,3.60
2023-02-25T20:05:56.283Z,5.13
2023-02-25T20:08:28.346Z,4.90
2023-02-25T20:11:00.765Z,5.50
2023-02-25T20:13:30.483Z,4.65
2023-02-25T20:16:03.391Z,3.20
2023-02-25T20:18:32.886Z,4.68
2023-02-25T20:21:02.393Z,4.20
2023-02-25T20:23:32.482Z,4.55
2023-02-25T20:26:08.680Z,3.60
2023-02-25T20:28:38.535Z,3.42
2023-02-25T20:31:08.713Z,3.50
2023-02-25T20:33:38.691Z,3.13
2023-02-25T20:36:19.611Z,3.40
2023-02-25T20:39:12.596Z,3.92
2023-02-25T20:41:45.342Z,4.22
2023-02-25T20:44:15.164Z,2.30
2023-02-25T20:46:45.476Z,2.60
2023-02-25T20:49:15.902Z,3.20
2023-02-25T20:51:47.235Z,5.70
2023-02-25T20:54:18.571Z,7.68
2023-02-25T20:56:50.859Z,11.43
2023-02-25T20:59:20.570Z,11.43
2023-02-25T21:01:50.205Z,9.95
2023-02-25T21:04:19.684Z,7.57
2023-02-25T21:06:49.158Z,4.47
2023-02-25T21:09:18.759Z,3.30
2023-02-25T21:11:50.847Z,4.55
2023-02-25T21:14:20.296Z,2.80
2023-02-25T21:16:54.512Z,2.53
2023-02-25T21:19:24.859Z,3.10
2023-02-25T21:21:54.598Z,3.60
2023-02-25T21:24:24.277Z,3.30
2023-02-25T21:26:56.325Z,3.78
2023-02-25T21:29:25.836Z,5.03
2023-02-25T21:31:55.389Z,3.60
2023-02-25T21:34:25.019Z,4.15
2023-02-25T21:36:54.675Z,4.13
2023-02-25T21:39:25.947Z,3.42
2023-02-25T21:41:58.409Z,3.38
2023-02-25T21:44:28.160Z,2.88
2023-02-25T21:46:58.221Z,3.58
2023-02-25T21:49:30.875Z,2.87
2023-02-25T21:52:01.574Z,2.40
2023-02-25T21:54:31.268Z,3.05
2023-02-25T21:57:03.310Z,2.65
2023-02-25T21:59:33.077Z,2.38
2023-02-25T22:02:02.606Z,2.50
2023-02-25T22:04:32.163Z,2.20
2023-02-25T22:07:01.682Z,2.22
2023-02-25T22:09:31.350Z,2.30
2023-02-25T22:12:03.423Z,2.40
2023-02-25T22:14:32.921Z,2.22
2023-02-25T22:17:02.411Z,2.38
2023-02-25T22:19:31.925Z,2.25
2023-02-25T22:22:01.396Z,1.90
2023-02-25T22:24:31.060Z,2.83
2023-02-25T22:27:03.113Z,2.60
2023-02-25T22:29:32.627Z,2.60
2023-02-25T22:32:02.189Z,2.47
2023-02-25T22:34:31.754Z,2.13
2023-02-25T22:37:01.351Z,2.10
2023-02-25T22:39:30.856Z,2.00
2023-02-25T22:42:02.910Z,2.10
2023-02-25T22:44:32.521Z,2.40
2023-02-25T22:47:02.042Z,2.10
2023-02-25T22:49:31.486Z,2.10
2023-02-25T22:52:01.177Z,2.40
2023-02-25T22:54:30.678Z,2.25
2023-02-25T22:57:02.729Z,2.28
2023-02-25T22:59:32.228Z,2.65
2023-02-25T23:02:02.800Z,2.20
2023-02-25T23:04:32.877Z,2.20
2023-02-25T23:07:02.335Z,2.20
2023-02-25T23:09:31.840Z,2.25
2023-02-25T23:12:06.880Z,2.30
2023-02-25T23:14:36.507Z,2.40
2023-02-25T23:17:06.547Z,2.40
2023-02-25T23:19:36.041Z,2.80
2023-02-25T23:22:05.513Z,2.20
2023-02-25T23:24:35.196Z,2.63
2023-02-25T23:27:07.833Z,2.35
2023-02-25T23:29:37.371Z,2.60
2023-02-25T23:32:08.511Z,2.42
2023-02-25T23:34:38.032Z,2.50
2023-02-25T23:37:07.515Z,3.90
2023-02-25T23:39:37.136Z,4.07
2023-02-25T23:42:09.831Z,2.60
2023-02-25T23:44:39.286Z,2.63
2023-02-25T23:47:08.855Z,2.70
2023-02-25T23:49:38.357Z,2.40
2023-02-25T23:52:07.994Z,2.40
2023-02-25T23:54:37.478Z,2.47
2023-02-25T23:57:09.681Z,2.28
2023-02-25T23:59:39.160Z,2.40
